Northern Sonoma County Latest

25 Stations

15 Minute Data | America/Los_Angeles
as of 5/3/26 6:30 PM PDT
Station Date Time Temp (°F) RH (%) Dew Pt (°F) Wind Spd (mph) Wind Dir (°) Wind Gust (mph) Latest Rain (In) Daily Rain (In) Daily Max Temp (°F) Daily Min Temp (°F)
Bavarian Lion EFW 5/3/26 1830 61.0   1.6 - - - - - 0.00 0.00 65.6   3.2 51.9   0.2
Rockpile Lower (Cooley) 5/3/26 1800 54.7   6.1 71   1 45.6   5.5 4.0   0.9 WSW | 258 8.2   0.7 0.00 0.00 61.8   4.7 49.4   0.9
Rockpile Upper (Cooley) 5/3/26 1830 51.3   8.1 78   5 44.7   6.0 2.5   1.2 WNW | 290 9.0   0.4 0.00 0.00 58.8   7.3 46.6   0.5
Lower Dry Creek Valley 5/3/26 1830 62.2   0.7 54   13 45.3   5.1 2.6   2.9 WSW | 242 7.6   4.4 0.00 0.00 68.2   3.5 53.3   0.9
Geyserville-South (Nervo Station) 5/3/26 1830 60.6   0.7 - - 3.6   1.7 SW | 232 6.1   4.4 0.00 0.00 64.7   1.2 51.8   0.6
Franz Valley (Stornetta) 5/3/26 1830 60.3   2.9 64   10 48.0   1.1 2.5   0.1 SSW | 208 5.7   2.0 0.00 0.00 64.8   1.8 51.7   2.6
Geyserville (Ranch 3) 5/3/26 1830 62.4   0.3 56   11 46.6   4.6 4.6   1.1 SW | 232 8.0   2.3 0.00 0.00 66.6   0.7 52.8   0.2
Geyserville-North (Hoffman) 5/3/26 1815 62.8   0.6 59   8 48.5   4.1 4.4   0.8 SW | 235 8.8   0.5 0.00 0.00 67.6   0.8 53.1   0.3
Knights Valley (Bavarian Lion) 5/3/26 1830 60.2   2.3 60   12 46.1   2.8 3.6   1.3 W | 274 7.1   1.1 0.00 0.00 64.1   2.6 51.5   0.8
HWY 128/Chalk Hill Rd (Landslide) 5/3/26 1800 62.3   2.5 57   15 46.9   3.7 4.0   1.0 SSW | 204 8.7   2.6 0.00 0.00 68.2   3.0 53.0   0.7
Newman Knights Valley 5/3/26 1830 60.4   1.7 69   7 50.1   0.9 4.3   1.1 SSW | 203 8.4   0.7 0.00 0.00 63.9   0.8 52.4   0.4
Jimtown-North (Piccolo Ranch 15) 5/3/26 1830 61.6   1.3 55   12 45.5   4.0 1.6   0.4 SSE | 158 5.9   0.7 0.00 0.00 67.2   1.3 52.7   0.7
Peterson (Ranch 09) 5/3/26 1815 62.2   1.6 55   13 45.8   4.1 3.8   0.3 S | 172 8.1   0.9 0.00 0.00 66.2   2.3 52.1   0.9
Cloverdale-SE (Ranch 38) 5/3/26 1830 58.8   1.9 70   5 48.9   3.7 3.0   6.4 WNW | 299 5.9   9.2 0.00 0.00 65.9   0.0 51.0   0.8
Geyserville-East (Ranch 40) 5/3/26 1830 58.9   0.9 69   11 48.6   3.2 4.7   4.8 SSW | 209 8.7   5.7 0.00 0.00 66.1   3.9 50.0   0.0
N Chalk Hill Rd (Ranch 63) 5/3/26 1830 61.0   2.5 57   14 45.6   3.5 3.6   1.8 S | 177 7.8   1.1 0.00 0.00 65.4   0.7 51.2   1.1
Cloverdale-East (Ranch 83) 5/3/26 1830 60.4   3.4 - - 2.9   2.6 W | 272 5.9   5.2 0.00 0.00 68.1   0.3 52.9   1.7
Crazy Creek Ranch 5/3/26 1830 61.8   1.6 62   13 48.7   3.6 3.0   1.8 SE | 146 5.9   2.2 0.00 0.00 66.8   1.7 52.3   0.1
Lytton East (Hill 5) 5/3/26 1830 60.8   1.6 58   13 46.2   4.0 4.6   3.6 SW | 232 9.2   2.9 0.00 0.00 67.3   4.4 51.9   0.9
Lytton East (Shop Hill Bottom) 5/3/26 1830 61.3   1.2 56   13 45.6   4.5 2.5   3.3 SW | 233 5.5   5.1 0.00 0.00 67.4   4.0 52.2   1.0
Lytton West Hill (23PS) 5/3/26 1830 61.5   1.0 56   13 45.6   4.5 3.7   2.2 WSW | 241 7.2   6.4 0.00 0.00 67.8   3.6 52.5   0.9
Lytton West Lower (Lew 6) 5/3/26 1830 61.0   0.6 58   11 46.1   4.0 3.8   2.1 SW | 233 7.5   3.8 0.00 0.00 67.2   3.2 52.4   0.9
Whitton Ranch (201e) 5/3/26 1830 61.8   0.5 58   11 47.0   4.1 2.7   1.8 SW | 235 4.6   3.2 0.00 0.00 67.1   1.9 52.3   0.6
Upper Dry Creek Valley 5/3/26 1715 64.2   0.1 56   9 48.1   3.7 3.5   2.9 SSW | 208 7.9   4.0 0.00 0.00 67.7   1.7 53.2   1.2
Big River 5/3/26 1830 61.2   2.1 61   13 47.7   3.2 3.8   2.1 SSE | 160 7.5   4.3 0.00 0.00 65.7   2.3 52.3   0.5
Max     64.2 78 50.1 4.7 - 9.2 0.00 0.00 68.2 53.3
Avg     60.6 61 46.9 3.5 - 7.3 0.00 - - -
Min     51.3 54 44.7 1.6 - 4.6 0.00 0.00 58.8 46.6